createdAt,value
2018-06-13T00:01:31.633Z,75.90
2018-06-13T00:03:36.536Z,77.80
2018-06-13T00:05:41.434Z,77.30
2018-06-13T00:07:46.375Z,78.41
2018-06-13T00:09:51.213Z,77.60
2018-06-13T00:11:56.026Z,77.60
2018-06-13T00:14:01.425Z,78.51
2018-06-13T00:16:06.493Z,78.78
2018-06-13T00:18:11.439Z,78.85
2018-06-13T00:20:16.265Z,79.57
2018-06-13T00:22:21.252Z,79.81
2018-06-13T00:24:26.288Z,79.50
2018-06-13T00:26:31.079Z,79.01
2018-06-13T00:28:35.926Z,79.12
2018-06-13T00:30:40.746Z,79.00
2018-06-13T00:32:45.688Z,79.12
2018-06-13T00:34:50.695Z,79.44
2018-06-13T00:36:55.758Z,79.72
2018-06-13T00:39:00.658Z,79.56
2018-06-13T00:41:05.674Z,79.37
2018-06-13T00:43:10.389Z,78.70
2018-06-13T00:45:15.249Z,79.20
2018-06-13T00:47:20.119Z,79.05
2018-06-13T00:49:24.844Z,78.86
2018-06-13T00:51:29.604Z,78.67
2018-06-13T00:53:34.396Z,78.54
2018-06-13T00:55:55.553Z,78.93
2018-06-13T00:58:00.478Z,79.44
2018-06-13T01:00:05.977Z,79.11
2018-06-13T01:02:11.042Z,78.58
2018-06-13T01:04:15.795Z,77.54
2018-06-13T01:06:20.530Z,78.71
2018-06-13T01:08:25.349Z,79.37
2018-06-13T01:10:30.132Z,79.13
2018-06-13T01:12:34.993Z,78.07
2018-06-13T01:14:39.958Z,77.17
2018-06-13T01:16:44.961Z,78.06
2018-06-13T01:18:49.686Z,77.62
2018-06-13T01:20:54.605Z,78.27
2018-06-13T01:22:59.595Z,78.04
2018-06-13T01:25:04.445Z,78.48
2018-06-13T01:27:09.329Z,77.40
2018-06-13T01:29:14.073Z,78.31
2018-06-13T01:31:18.988Z,78.03
2018-06-13T01:33:23.955Z,77.27
2018-06-13T01:35:28.911Z,77.76
2018-06-13T01:37:33.787Z,78.15
2018-06-13T01:39:38.770Z,77.96
2018-06-13T01:41:43.563Z,77.36
2018-06-13T01:43:48.316Z,76.95
2018-06-13T01:45:53.222Z,76.77
2018-06-13T01:47:58.150Z,77.14
2018-06-13T01:50:03.044Z,77.33
2018-06-13T01:52:08.782Z,78.09
2018-06-13T01:54:13.493Z,77.70
2018-06-13T01:56:18.283Z,78.17
2018-06-13T01:58:23.044Z,77.90
2018-06-13T02:00:27.848Z,76.99
2018-06-13T02:02:32.589Z,77.15
2018-06-13T02:04:37.346Z,77.84
2018-06-13T02:06:42.142Z,78.17
2018-06-13T02:08:47.133Z,78.84
2018-06-13T02:10:51.825Z,78.72
2018-06-13T02:12:56.666Z,78.44
2018-06-13T02:15:01.350Z,78.79
2018-06-13T02:17:06.142Z,78.61
2018-06-13T02:19:10.913Z,77.82
2018-06-13T02:21:16.887Z,77.86
2018-06-13T02:23:21.679Z,77.66
2018-06-13T02:25:26.446Z,77.98
2018-06-13T02:27:31.428Z,78.65
2018-06-13T02:29:36.079Z,78.06
2018-06-13T02:31:40.855Z,78.20
2018-06-13T02:33:45.655Z,77.94
2018-06-13T02:35:50.550Z,77.70
2018-06-13T02:37:55.339Z,77.55
2018-06-13T02:40:00.097Z,78.04
2018-06-13T02:42:04.912Z,78.77
2018-06-13T02:44:09.645Z,77.91
2018-06-13T02:46:14.359Z,78.81
2018-06-13T02:48:19.038Z,78.71
2018-06-13T02:50:23.804Z,79.22
2018-06-13T02:52:28.703Z,78.03
2018-06-13T02:54:33.527Z,78.89
2018-06-13T02:56:38.240Z,78.75
2018-06-13T02:58:43.090Z,78.60
2018-06-13T03:00:48.504Z,79.58
2018-06-13T03:02:53.467Z,79.39
2018-06-13T03:04:58.228Z,78.33
2018-06-13T03:07:03.133Z,78.49
2018-06-13T03:09:09.582Z,78.06
2018-06-13T03:11:14.568Z,78.46
2018-06-13T03:13:19.427Z,78.75
2018-06-13T03:15:24.351Z,77.38
2018-06-13T03:17:29.256Z,77.46
2018-06-13T03:19:34.002Z,77.30
2018-06-13T03:21:38.844Z,76.51
2018-06-13T03:23:43.673Z,78.00
2018-06-13T03:25:48.358Z,78.00
2018-06-13T03:27:53.068Z,78.05
2018-06-13T03:29:57.775Z,77.56
2018-06-13T03:32:02.441Z,78.94
2018-06-13T03:34:07.149Z,78.46
2018-06-13T03:36:11.954Z,78.04
2018-06-13T03:38:16.763Z,77.23
2018-06-13T03:40:21.462Z,77.83
2018-06-13T03:42:26.370Z,78.74
2018-06-13T03:44:31.055Z,77.19
2018-06-13T03:46:35.918Z,77.85
2018-06-13T03:48:40.785Z,76.97
2018-06-13T03:50:45.543Z,76.95
2018-06-13T03:52:50.256Z,77.61
2018-06-13T03:54:55.125Z,77.20
2018-06-13T03:57:00.022Z,76.22
2018-06-13T03:59:04.969Z,76.46
2018-06-13T04:01:09.906Z,76.55
2018-06-13T04:03:15.085Z,76.96
2018-06-13T04:05:19.754Z,77.04
2018-06-13T04:07:24.516Z,76.06
2018-06-13T04:09:29.408Z,76.71
2018-06-13T04:11:34.254Z,76.73
2018-06-13T04:13:39.168Z,76.74
2018-06-13T04:15:44.122Z,77.33
2018-06-13T04:17:49.122Z,76.70
2018-06-13T04:19:54.108Z,76.52
2018-06-13T04:21:59.053Z,77.04
2018-06-13T04:24:03.901Z,77.09
2018-06-13T04:26:08.985Z,75.46
2018-06-13T04:28:13.740Z,74.85
2018-06-13T04:30:18.463Z,73.85
2018-06-13T04:32:23.148Z,75.01
2018-06-13T04:34:27.838Z,75.12
2018-06-13T04:36:32.494Z,74.05
2018-06-13T04:38:37.285Z,73.92
2018-06-13T04:40:41.956Z,73.96
2018-06-13T04:42:46.802Z,74.04
2018-06-13T04:44:51.463Z,72.44
2018-06-13T04:46:56.326Z,73.49
2018-06-13T04:49:01.063Z,73.39
2018-06-13T04:51:05.851Z,73.81
2018-06-13T04:53:10.653Z,72.01
2018-06-13T04:55:15.359Z,71.80
2018-06-13T04:57:20.073Z,72.97
2018-06-13T04:59:24.981Z,73.66
2018-06-13T05:01:29.887Z,73.00
2018-06-13T05:03:34.751Z,72.57
2018-06-13T05:05:39.642Z,74.90
2018-06-13T05:07:44.437Z,74.22
2018-06-13T05:09:49.497Z,73.60
2018-06-13T05:11:54.669Z,73.08
2018-06-13T05:13:59.508Z,73.76
2018-06-13T05:16:04.335Z,74.51
2018-06-13T05:18:09.332Z,74.64
2018-06-13T05:20:14.073Z,74.31
2018-06-13T05:22:18.838Z,73.33
2018-06-13T05:24:23.566Z,72.78
2018-06-13T05:26:28.600Z,71.12
2018-06-13T05:28:33.505Z,71.94
2018-06-13T05:30:38.297Z,71.53
2018-06-13T05:32:43.139Z,73.00
2018-06-13T05:34:47.932Z,72.39
2018-06-13T05:36:52.664Z,70.96
2018-06-13T05:38:57.583Z,72.14
2018-06-13T05:41:02.545Z,72.95
2018-06-13T05:43:07.748Z,72.64
2018-06-13T05:45:12.655Z,72.84
2018-06-13T05:47:17.635Z,73.20
2018-06-13T05:49:22.501Z,72.52
2018-06-13T05:51:27.384Z,72.71
2018-06-13T05:53:32.350Z,72.08
2018-06-13T05:55:37.359Z,72.22
2018-06-13T05:57:42.229Z,72.13
2018-06-13T05:59:47.216Z,73.61
2018-06-13T06:01:51.946Z,72.99
2018-06-13T06:03:56.876Z,72.19
2018-06-13T06:06:01.571Z,73.02
2018-06-13T06:08:06.563Z,72.23
2018-06-13T06:10:11.497Z,71.45
2018-06-13T06:12:16.198Z,70.59
2018-06-13T06:14:20.884Z,71.71
2018-06-13T06:16:25.617Z,69.98
2018-06-13T06:18:30.725Z,69.80
2018-06-13T06:20:35.434Z,69.90
2018-06-13T06:22:40.189Z,69.74
2018-06-13T06:24:45.036Z,71.14
2018-06-13T06:26:49.758Z,70.77
2018-06-13T06:28:54.387Z,70.52
2018-06-13T06:30:59.275Z,69.82
2018-06-13T06:33:04.224Z,70.57
2018-06-13T06:35:09.151Z,70.30
2018-06-13T06:37:13.966Z,69.43
2018-06-13T06:39:18.659Z,69.53
2018-06-13T06:41:23.443Z,68.76
2018-06-13T06:43:28.249Z,68.89
2018-06-13T06:45:32.990Z,69.43
2018-06-13T06:47:37.775Z,70.16
2018-06-13T06:49:42.660Z,69.15
2018-06-13T06:51:47.556Z,69.10
2018-06-13T06:53:52.535Z,68.25
2018-06-13T06:55:57.600Z,67.96
2018-06-13T06:58:02.562Z,67.22
2018-06-13T07:00:07.622Z,67.78
2018-06-13T07:02:12.589Z,66.97
2018-06-13T07:04:27.721Z,67.49
2018-06-13T07:06:32.677Z,66.70
2018-06-13T07:08:37.711Z,66.81
2018-06-13T07:10:42.476Z,67.33
2018-06-13T07:12:47.274Z,66.98
2018-06-13T07:14:51.904Z,68.06
2018-06-13T07:16:56.789Z,66.65
2018-06-13T07:19:01.841Z,66.84
2018-06-13T07:21:06.708Z,67.77
2018-06-13T07:23:11.368Z,66.87
2018-06-13T07:25:16.124Z,66.77
2018-06-13T07:27:20.936Z,67.51
2018-06-13T07:29:25.824Z,67.43
2018-06-13T07:31:30.571Z,68.25
2018-06-13T07:33:35.442Z,67.73
2018-06-13T07:35:40.277Z,67.54
2018-06-13T07:37:45.193Z,67.88
2018-06-13T07:39:50.098Z,67.73
2018-06-13T07:41:54.881Z,66.87
2018-06-13T07:43:59.703Z,68.43
2018-06-13T07:46:04.501Z,68.01
2018-06-13T07:48:09.478Z,68.00
2018-06-13T07:50:14.249Z,67.46
2018-06-13T07:52:19.016Z,66.29
2018-06-13T07:54:23.772Z,67.01
2018-06-13T07:56:28.810Z,66.75
2018-06-13T07:58:33.633Z,67.05
2018-06-13T08:00:38.472Z,67.86
2018-06-13T08:02:43.428Z,67.72
2018-06-13T08:04:49.413Z,67.66
2018-06-13T08:06:54.334Z,68.37
2018-06-13T08:08:59.292Z,67.57
2018-06-13T08:11:04.235Z,68.77
2018-06-13T08:13:09.061Z,66.36
2018-06-13T08:15:13.998Z,67.07
2018-06-13T08:17:19.489Z,67.00
2018-06-13T08:19:24.585Z,65.53
2018-06-13T08:21:29.690Z,66.18
2018-06-13T08:23:34.743Z,67.00
2018-06-13T08:25:39.694Z,65.84
2018-06-13T08:27:51.439Z,66.19
2018-06-13T08:29:56.333Z,66.58
2018-06-13T08:32:01.333Z,66.58
2018-06-13T08:34:06.249Z,66.08
2018-06-13T08:36:11.233Z,65.02
2018-06-13T08:38:16.188Z,63.93
2018-06-13T08:40:21.016Z,64.20
2018-06-13T08:42:26.008Z,65.14
2018-06-13T08:44:31.137Z,65.00
2018-06-13T08:46:35.955Z,64.96
2018-06-13T08:48:40.924Z,64.45
2018-06-13T08:50:45.844Z,64.81
2018-06-13T08:52:50.780Z,64.08
2018-06-13T08:54:55.899Z,64.01
2018-06-13T08:57:00.730Z,63.56
2018-06-13T08:59:05.582Z,63.95
2018-06-13T09:01:10.809Z,64.24
2018-06-13T09:03:15.787Z,64.33
2018-06-13T09:05:20.651Z,63.03
2018-06-13T09:07:25.654Z,64.26
2018-06-13T09:09:30.664Z,64.12
2018-06-13T09:11:36.126Z,64.93
2018-06-13T09:13:41.246Z,66.06
2018-06-13T09:15:46.182Z,66.74
2018-06-13T09:17:51.210Z,67.13
2018-06-13T09:19:56.172Z,66.37
2018-06-13T09:22:01.056Z,66.34
2018-06-13T09:24:06.265Z,67.09
2018-06-13T09:26:11.329Z,67.20
2018-06-13T09:28:16.290Z,66.26
2018-06-13T09:30:21.249Z,66.96
2018-06-13T09:32:26.312Z,64.04
2018-06-13T09:34:31.366Z,63.17
2018-06-13T09:36:36.361Z,63.21
2018-06-13T09:38:41.239Z,62.34
2018-06-13T09:40:46.223Z,62.72
2018-06-13T09:42:51.981Z,63.09
2018-06-13T09:44:57.048Z,62.16
2018-06-13T09:47:06.905Z,61.99
2018-06-13T09:49:06.905Z,63.35
2018-06-13T09:51:11.826Z,61.98
2018-06-13T09:53:16.936Z,62.09
2018-06-13T09:55:21.929Z,61.37
2018-06-13T09:57:26.828Z,61.58
2018-06-13T09:59:35.949Z,61.44
2018-06-13T10:01:46.135Z,60.35
2018-06-13T10:03:50.938Z,58.51
2018-06-13T10:05:55.985Z,58.15
2018-06-13T10:10:17.611Z,58.49
2018-06-13T10:12:22.830Z,58.46
2018-06-13T10:14:27.942Z,58.92
2018-06-13T10:16:33.056Z,57.63
2018-06-13T10:18:38.825Z,59.14
2018-06-13T10:20:44.033Z,60.48
2018-06-13T10:22:49.476Z,61.20
2018-06-13T10:24:54.595Z,61.45
2018-06-13T10:26:59.772Z,61.87
2018-06-13T10:29:04.990Z,63.01
2018-06-13T10:31:10.049Z,63.40
2018-06-13T10:33:15.210Z,63.78
2018-06-13T10:35:20.111Z,62.89
2018-06-13T10:37:25.018Z,62.86
2018-06-13T10:39:30.019Z,63.55
2018-06-13T10:41:35.131Z,62.79
2018-06-13T10:43:40.135Z,63.74
2018-06-13T10:45:44.967Z,63.60
2018-06-13T10:47:49.806Z,62.97
2018-06-13T10:49:54.766Z,63.10
2018-06-13T10:51:59.811Z,63.71
2018-06-13T10:54:04.990Z,64.38
2018-06-13T10:56:10.624Z,63.97
2018-06-13T10:58:16.516Z,62.12
2018-06-13T11:00:21.402Z,63.41
2018-06-13T11:02:26.230Z,62.66
2018-06-13T11:04:31.137Z,61.56
2018-06-13T11:06:36.425Z,61.18
2018-06-13T11:08:41.307Z,61.82
2018-06-13T11:10:46.138Z,60.98
2018-06-13T11:12:50.945Z,61.23
2018-06-13T11:14:55.700Z,59.66
2018-06-13T11:17:00.491Z,58.62
2018-06-13T11:19:05.260Z,59.11
2018-06-13T11:21:10.227Z,59.33
2018-06-13T11:23:14.976Z,58.37
2018-06-13T11:25:19.774Z,59.09
2018-06-13T11:27:25.610Z,58.96
2018-06-13T11:29:30.522Z,60.24
2018-06-13T11:31:35.688Z,61.08
2018-06-13T11:33:40.598Z,61.70
2018-06-13T11:35:45.898Z,60.62
2018-06-13T11:37:50.734Z,60.69
2018-06-13T11:39:57.285Z,61.23
2018-06-13T11:42:02.465Z,61.50
2018-06-13T11:44:07.502Z,59.81
2018-06-13T11:46:12.624Z,58.79
2018-06-13T11:48:17.892Z,59.30
2018-06-13T11:50:22.969Z,58.47
2018-06-13T11:52:28.135Z,57.24
2018-06-13T11:54:33.485Z,57.98
2018-06-13T11:56:38.610Z,57.24
2018-06-13T11:58:43.651Z,57.89
2018-06-13T12:00:48.566Z,55.49
2018-06-13T12:02:53.612Z,55.86
2018-06-13T12:04:58.742Z,55.90
2018-06-13T12:07:03.673Z,55.41
2018-06-13T12:09:08.955Z,54.23
2018-06-13T12:11:13.919Z,53.40
2018-06-13T12:13:18.789Z,54.41
2018-06-13T12:15:23.878Z,55.19
2018-06-13T12:17:29.142Z,52.07
2018-06-13T12:19:34.040Z,53.47
2018-06-13T12:21:39.189Z,53.02
2018-06-13T12:23:44.081Z,53.33
2018-06-13T12:25:48.948Z,53.69
2018-06-13T12:27:54.497Z,53.40
2018-06-13T12:29:59.391Z,53.88
2018-06-13T12:32:04.386Z,53.61
2018-06-13T12:34:09.383Z,54.80
2018-06-13T12:36:14.287Z,54.47
2018-06-13T12:38:19.243Z,53.51
2018-06-13T12:40:24.172Z,53.78
2018-06-13T12:42:29.137Z,53.04
2018-06-13T12:44:33.889Z,53.81
2018-06-13T12:46:39.167Z,52.58
2018-06-13T12:48:44.158Z,54.33
2018-06-13T12:50:49.054Z,53.13
2018-06-13T12:52:54.223Z,53.60
2018-06-13T12:54:59.308Z,52.80
2018-06-13T12:57:04.142Z,54.05
2018-06-13T12:59:08.955Z,51.44
2018-06-13T13:01:14.436Z,52.65
2018-06-13T13:03:19.388Z,51.57
2018-06-13T13:05:24.298Z,50.91
2018-06-13T13:07:29.293Z,51.93
2018-06-13T13:09:34.253Z,50.51
2018-06-13T13:11:39.382Z,49.83
2018-06-13T13:13:44.146Z,49.04
2018-06-13T13:15:48.893Z,49.95
2018-06-13T13:17:53.864Z,49.08
2018-06-13T13:19:58.791Z,50.61
2018-06-13T13:22:03.899Z,51.22
2018-06-13T13:24:08.863Z,51.47
2018-06-13T13:26:13.866Z,50.94
2018-06-13T13:28:18.732Z,51.78
2018-06-13T13:30:23.736Z,52.45
2018-06-13T13:32:28.865Z,51.70
2018-06-13T13:34:33.795Z,51.00
2018-06-13T13:36:38.794Z,50.48
2018-06-13T13:38:43.910Z,50.97
2018-06-13T13:40:49.205Z,52.68
2018-06-13T13:42:54.558Z,51.92
2018-06-13T13:44:59.603Z,51.26
2018-06-13T13:47:04.620Z,52.04
2018-06-13T13:49:09.666Z,51.64
2018-06-13T13:51:14.742Z,52.48
2018-06-13T13:53:19.701Z,52.78
2018-06-13T13:55:24.676Z,51.80
2018-06-13T13:57:29.508Z,53.06
2018-06-13T13:59:34.552Z,53.32
2018-06-13T14:01:39.883Z,51.92
2018-06-13T14:03:45.110Z,50.33
2018-06-13T14:05:50.193Z,51.00
2018-06-13T14:07:55.475Z,50.68
2018-06-13T14:10:02.909Z,49.73
2018-06-13T14:12:15.900Z,48.28
2018-06-13T14:14:22.228Z,49.42
2018-06-13T14:16:30.601Z,50.00
2018-06-13T14:18:35.543Z,48.85
2018-06-13T14:20:40.755Z,49.58
2018-06-13T14:22:45.856Z,49.03
2018-06-13T14:24:50.911Z,48.02
2018-06-13T14:26:55.776Z,46.67
2018-06-13T14:29:00.764Z,47.44
2018-06-13T14:31:05.682Z,46.83
2018-06-13T14:33:10.564Z,46.89
2018-06-13T14:35:15.413Z,47.31
2018-06-13T14:37:20.331Z,47.89
2018-06-13T14:39:25.219Z,48.57
2018-06-13T14:41:30.258Z,47.31
2018-06-13T14:43:34.924Z,48.16
2018-06-13T14:45:39.839Z,47.72
2018-06-13T14:47:44.751Z,49.30
2018-06-13T14:49:49.645Z,50.93
2018-06-13T14:51:55.793Z,51.23
2018-06-13T14:54:00.929Z,51.58
2018-06-13T14:56:10.962Z,51.15
2018-06-13T14:58:16.200Z,51.52
2018-06-13T15:00:21.221Z,51.27
2018-06-13T15:02:26.105Z,51.27
2018-06-13T15:04:33.896Z,49.62
2018-06-13T15:06:38.944Z,50.50
2018-06-13T15:08:44.008Z,50.41
2018-06-13T15:10:49.211Z,49.26
2018-06-13T15:12:54.352Z,49.24
2018-06-13T15:14:59.300Z,48.76
2018-06-13T15:17:04.699Z,48.17
2018-06-13T15:19:09.410Z,47.24
2018-06-13T15:21:14.301Z,47.60
2018-06-13T15:23:19.139Z,49.26
2018-06-13T15:25:24.158Z,48.33
2018-06-13T15:27:29.260Z,47.83
2018-06-13T15:29:34.245Z,45.97
2018-06-13T15:31:39.285Z,46.80
2018-06-13T15:33:44.107Z,44.85
2018-06-13T15:35:49.189Z,45.22
2018-06-13T15:37:54.153Z,45.75
2018-06-13T15:39:59.240Z,46.41
2018-06-13T15:42:04.269Z,45.22
2018-06-13T15:44:09.262Z,45.77
2018-06-13T15:46:14.238Z,45.79
2018-06-13T15:48:19.165Z,46.32
2018-06-13T15:50:24.180Z,46.68
2018-06-13T15:52:29.147Z,45.83
2018-06-13T15:54:34.069Z,45.03
2018-06-13T15:56:39.071Z,45.10
2018-06-13T15:58:44.185Z,44.42
2018-06-13T16:00:49.071Z,45.43
2018-06-13T16:02:54.064Z,46.00
2018-06-13T16:04:59.112Z,45.74
2018-06-13T16:07:04.105Z,46.22
2018-06-13T16:09:11.221Z,46.82
2018-06-13T16:11:16.034Z,46.63
2018-06-13T16:13:20.749Z,47.62
2018-06-13T16:15:25.710Z,47.19
2018-06-13T16:17:30.958Z,46.43
2018-06-13T16:19:36.150Z,46.94
2018-06-13T16:21:41.316Z,46.91
2018-06-13T16:23:46.201Z,46.20
2018-06-13T16:25:51.178Z,45.86
2018-06-13T16:27:56.023Z,45.80
2018-06-13T16:30:01.036Z,47.27
2018-06-13T16:32:06.064Z,47.82
2018-06-13T16:34:11.040Z,47.44
2018-06-13T16:36:16.314Z,47.73
2018-06-13T16:38:21.522Z,46.59
2018-06-13T16:40:28.297Z,46.85
2018-06-13T16:42:33.298Z,47.10
2018-06-13T16:44:38.058Z,46.88
2018-06-13T16:46:43.141Z,46.85
2018-06-13T16:48:48.266Z,47.31
2018-06-13T16:51:09.609Z,47.69
2018-06-13T16:53:24.739Z,47.76
2018-06-13T16:55:29.737Z,47.44
2018-06-13T16:57:34.684Z,47.95
2018-06-13T16:59:39.805Z,47.98
2018-06-13T17:01:44.750Z,48.74
2018-06-13T17:03:49.797Z,48.37
2018-06-13T17:05:54.861Z,48.53
2018-06-13T17:07:59.733Z,48.76
2018-06-13T17:10:05.002Z,48.27
2018-06-13T17:12:09.871Z,49.50
2018-06-13T17:14:14.758Z,48.80
2018-06-13T17:16:19.648Z,48.39
2018-06-13T17:18:24.733Z,49.60
2018-06-13T17:20:29.828Z,49.04
2018-06-13T17:22:34.835Z,49.34
2018-06-13T17:24:39.966Z,49.75
2018-06-13T17:26:45.414Z,50.36
2018-06-13T17:28:50.700Z,50.30
2018-06-13T17:30:55.972Z,49.68
2018-06-13T17:33:00.633Z,49.89
2018-06-13T17:35:05.798Z,49.76
2018-06-13T17:37:10.948Z,50.22
2018-06-13T17:39:16.000Z,50.09
2018-06-13T17:41:20.993Z,50.12
2018-06-13T17:43:26.115Z,51.04
2018-06-13T17:45:31.299Z,50.25
2018-06-13T17:47:36.279Z,50.25
2018-06-13T17:49:41.393Z,50.20
2018-06-13T17:51:46.468Z,49.95
2018-06-13T17:53:51.512Z,49.63
2018-06-13T17:55:57.007Z,50.28
2018-06-13T17:58:02.462Z,51.39
2018-06-13T18:00:07.649Z,51.49
2018-06-13T18:02:12.635Z,50.91
2018-06-13T18:04:17.734Z,51.20
2018-06-13T18:06:22.875Z,51.32
2018-06-13T18:08:28.053Z,50.88
2018-06-13T18:10:33.208Z,51.44
2018-06-13T18:12:38.430Z,50.02
2018-06-13T18:14:43.762Z,48.49
2018-06-13T18:16:48.928Z,49.34
2018-06-13T18:18:53.798Z,50.29
2018-06-13T18:20:58.749Z,49.27
2018-06-13T18:23:04.153Z,50.50
2018-06-13T18:25:09.515Z,50.63
2018-06-13T18:27:14.749Z,51.11
2018-06-13T18:29:20.095Z,51.02
2018-06-13T18:31:25.003Z,51.09
2018-06-13T18:33:30.050Z,51.33
2018-06-13T18:35:35.161Z,52.08
2018-06-13T18:37:40.456Z,52.54
2018-06-13T18:39:45.459Z,52.18
2018-06-13T18:41:50.973Z,52.90
2018-06-13T18:43:56.115Z,53.07
2018-06-13T18:46:01.772Z,53.01
2018-06-13T18:48:07.120Z,53.12
2018-06-13T18:50:12.414Z,53.25
2018-06-13T18:52:17.560Z,54.27
2018-06-13T18:54:22.571Z,53.89
2018-06-13T18:56:29.906Z,53.82
2018-06-13T18:58:35.097Z,54.07
2018-06-13T19:00:40.107Z,54.42
2018-06-13T19:02:45.230Z,53.78
2018-06-13T19:04:51.253Z,53.56
2018-06-13T19:06:58.764Z,54.77
2018-06-13T19:09:05.113Z,54.55
2018-06-13T19:11:11.112Z,55.32
2018-06-13T19:13:18.262Z,55.12
2018-06-13T19:15:27.380Z,55.31
2018-06-13T19:17:33.327Z,55.33
2018-06-13T19:19:38.648Z,54.71
2018-06-13T19:21:44.299Z,55.36
2018-06-13T19:23:52.314Z,55.53
2018-06-13T19:25:58.654Z,54.42
2018-06-13T19:28:05.267Z,53.86
2018-06-13T19:30:12.855Z,55.60
2018-06-13T19:32:22.653Z,55.38
2018-06-13T19:34:28.626Z,56.20
2018-06-13T19:36:37.563Z,56.22
2018-06-13T19:38:48.395Z,56.96
2018-06-13T19:40:58.290Z,56.61
2018-06-13T19:43:08.019Z,56.86
2018-06-13T19:45:16.818Z,57.33
2018-06-13T19:47:26.815Z,57.76
2018-06-13T19:49:31.697Z,56.99
2018-06-13T19:51:36.920Z,57.73
2018-06-13T19:53:48.119Z,57.75
2018-06-13T19:56:10.453Z,57.27
2018-06-13T19:58:18.916Z,57.17
2018-06-13T20:00:26.440Z,57.41
2018-06-13T20:02:39.714Z,57.47
2018-06-13T20:04:54.007Z,57.90
2018-06-13T20:07:01.304Z,57.27
2018-06-13T20:09:11.087Z,57.78
2018-06-13T20:11:16.801Z,58.66
2018-06-13T20:13:27.547Z,59.21
2018-06-13T20:15:37.502Z,58.40
2018-06-13T20:17:48.061Z,58.68
2018-06-13T20:19:55.159Z,59.38
2018-06-13T20:22:00.943Z,58.97
2018-06-13T20:24:05.807Z,59.88
2018-06-13T20:28:19.244Z,60.26
2018-06-13T20:30:29.169Z,60.13
2018-06-13T20:32:34.145Z,59.40
2018-06-13T20:34:39.195Z,59.77
2018-06-13T20:36:44.426Z,59.25
2018-06-13T20:38:49.604Z,60.53
2018-06-13T20:40:54.670Z,60.82
2018-06-13T20:43:01.350Z,60.39
2018-06-13T20:45:08.865Z,60.62
2018-06-13T20:47:16.821Z,60.84
2018-06-13T20:49:23.002Z,61.24
2018-06-13T20:51:30.007Z,61.11
2018-06-13T20:53:35.564Z,61.93
2018-06-13T20:55:43.530Z,62.35
2018-06-13T20:57:49.341Z,62.17
2018-06-13T20:59:55.406Z,63.27
2018-06-13T21:02:01.477Z,63.69
2018-06-13T21:04:09.812Z,64.04
2018-06-13T21:06:15.032Z,64.04
2018-06-13T21:08:20.510Z,64.00
2018-06-13T21:10:26.127Z,64.59
2018-06-13T21:12:32.437Z,64.39
2018-06-13T21:14:37.583Z,64.58
2018-06-13T21:16:42.994Z,65.41
2018-06-13T21:18:48.400Z,65.86
2018-06-13T21:20:53.751Z,65.82
2018-06-13T21:22:58.985Z,66.94
2018-06-13T21:25:04.101Z,67.28
2018-06-13T21:27:10.263Z,67.70
2018-06-13T21:29:15.365Z,66.86
2018-06-13T21:31:20.793Z,65.99
2018-06-13T21:33:26.117Z,66.32
2018-06-13T21:35:33.840Z,67.44
2018-06-13T21:37:38.924Z,67.43
2018-06-13T21:39:44.051Z,68.09
2018-06-13T21:41:49.107Z,69.07
2018-06-13T21:43:56.648Z,69.49
2018-06-13T21:46:01.723Z,69.20
2018-06-13T21:48:07.054Z,69.12
2018-06-13T21:50:12.147Z,69.46
2018-06-13T21:52:17.419Z,69.41
2018-06-13T21:54:24.688Z,70.01
2018-06-13T21:56:31.950Z,70.49
2018-06-13T21:58:41.048Z,70.35
2018-06-13T22:00:46.249Z,70.73
2018-06-13T22:02:51.412Z,70.86
2018-06-13T22:04:56.794Z,71.42
2018-06-13T22:07:01.845Z,71.81
2018-06-13T22:09:09.926Z,71.58
2018-06-13T22:11:15.058Z,72.08
2018-06-13T22:13:20.121Z,72.60
2018-06-13T22:15:26.994Z,72.46
2018-06-13T22:17:32.081Z,72.55
2018-06-13T22:19:37.098Z,72.25
2018-06-13T22:21:42.317Z,72.38
2018-06-13T22:23:47.362Z,73.04
2018-06-13T22:25:52.522Z,72.73
2018-06-13T22:27:57.628Z,73.26
2018-06-13T22:30:02.750Z,73.05
2018-06-13T22:32:07.827Z,74.44
2018-06-13T22:34:12.850Z,73.59
2018-06-13T22:36:17.908Z,73.86
2018-06-13T22:38:22.970Z,74.27
2018-06-13T22:40:27.948Z,74.87
2018-06-13T22:42:32.962Z,74.47
2018-06-13T22:44:37.911Z,74.19
2018-06-13T22:46:42.738Z,74.14
2018-06-13T22:48:47.590Z,74.73
2018-06-13T22:50:52.621Z,74.94
2018-06-13T22:52:57.847Z,75.49
2018-06-13T22:55:02.944Z,75.16
2018-06-13T22:57:07.956Z,75.31
2018-06-13T22:59:13.007Z,75.59
2018-06-13T23:01:18.077Z,75.24
2018-06-13T23:03:22.973Z,75.92
2018-06-13T23:05:27.938Z,75.38
2018-06-13T23:07:33.076Z,76.26
2018-06-13T23:09:38.099Z,76.80
2018-06-13T23:11:43.151Z,76.57
2018-06-13T23:13:48.270Z,77.26
2018-06-13T23:15:53.382Z,76.92
2018-06-13T23:17:58.479Z,77.24
2018-06-13T23:20:05.360Z,77.13
2018-06-13T23:22:10.433Z,77.27
2018-06-13T23:24:15.351Z,77.78
2018-06-13T23:26:22.220Z,77.89
2018-06-13T23:28:27.909Z,78.27
2018-06-13T23:30:33.644Z,78.38
2018-06-13T23:32:38.536Z,78.28
2018-06-13T23:34:43.447Z,78.50
2018-06-13T23:36:48.254Z,78.82
2018-06-13T23:38:53.082Z,79.47
2018-06-13T23:40:57.979Z,79.07
2018-06-13T23:43:02.742Z,78.87
2018-06-13T23:45:07.442Z,78.95
2018-06-13T23:47:12.423Z,79.28
2018-06-13T23:49:17.214Z,78.86
2018-06-13T23:51:22.109Z,79.24
2018-06-13T23:53:26.998Z,79.24
2018-06-13T23:55:32.135Z,78.91
2018-06-13T23:57:37.124Z,79.19
2018-06-13T23:59:42.043Z,79.15
